createdAt,value
2023-02-23T00:00:34.184Z,12.85
2023-02-23T00:01:37.910Z,12.88
2023-02-23T00:02:40.469Z,12.45
2023-02-23T00:03:43.970Z,13.07
2023-02-23T00:04:48.209Z,11.90
2023-02-23T00:05:50.690Z,12.10
2023-02-23T00:06:53.693Z,11.77
2023-02-23T00:07:56.858Z,11.02
2023-02-23T00:09:01.266Z,12.07
2023-02-23T00:10:04.100Z,11.68
2023-02-23T00:11:08.651Z,11.32
2023-02-23T00:12:10.990Z,11.73
2023-02-23T00:13:13.587Z,11.50
2023-02-23T00:14:16.086Z,11.63
2023-02-23T00:15:18.502Z,11.68
2023-02-23T00:16:23.699Z,12.15
2023-02-23T00:17:26.509Z,11.57
2023-02-23T00:18:30.183Z,10.75
2023-02-23T00:19:33.608Z,12.38
2023-02-23T00:20:36.127Z,11.35
2023-02-23T00:21:39.024Z,11.60
2023-02-23T00:22:42.129Z,11.45
2023-02-23T00:23:53.264Z,11.20
2023-02-23T00:25:59.854Z,11.13
2023-02-23T00:27:06.152Z,10.95
2023-02-23T00:28:10.095Z,11.00
2023-02-23T00:29:17.760Z,11.05
2023-02-23T00:30:20.699Z,11.27
2023-02-23T00:31:26.914Z,11.77
2023-02-23T00:32:29.533Z,11.40
2023-02-23T00:33:32.054Z,11.05
2023-02-23T00:34:36.601Z,11.73
2023-02-23T00:35:39.899Z,11.13
2023-02-23T00:36:43.221Z,10.73
2023-02-23T00:37:48.916Z,11.88
2023-02-23T00:39:00.237Z,11.20
2023-02-23T00:40:03.885Z,10.80
2023-02-23T00:41:14.446Z,11.52
2023-02-23T00:42:17.272Z,10.25
2023-02-23T00:43:20.055Z,10.57
2023-02-23T00:44:24.740Z,10.30
2023-02-23T00:45:27.673Z,10.63
2023-02-23T00:46:30.910Z,10.35
2023-02-23T00:47:33.462Z,11.00
2023-02-23T00:48:36.207Z,10.88
2023-02-23T00:49:38.744Z,10.00
2023-02-23T00:50:41.818Z,10.52
2023-02-23T00:51:44.417Z,9.98
2023-02-23T00:52:46.992Z,10.63
2023-02-23T00:53:49.505Z,10.38
2023-02-23T00:54:51.852Z,11.00
2023-02-23T00:55:56.235Z,10.45
2023-02-23T00:56:58.637Z,10.02
2023-02-23T00:58:04.043Z,10.32
2023-02-23T00:59:06.882Z,10.18
2023-02-23T01:00:18.810Z,10.85
2023-02-23T01:01:21.575Z,9.88
2023-02-23T01:02:30.671Z,9.77
2023-02-23T01:03:33.449Z,10.05
2023-02-23T01:04:35.873Z,9.75
2023-02-23T01:05:38.200Z,9.50
2023-02-23T01:06:41.767Z,9.93
2023-02-23T01:07:47.344Z,9.85
2023-02-23T01:08:56.630Z,9.55
2023-02-23T01:09:59.329Z,10.63
2023-02-23T01:11:10.440Z,8.50
2023-02-23T01:12:13.143Z,9.95
2023-02-23T01:13:21.037Z,9.90
2023-02-23T01:14:24.055Z,10.13
2023-02-23T01:15:27.898Z,9.93
2023-02-23T01:16:33.103Z,9.45
2023-02-23T01:17:35.728Z,9.95
2023-02-23T01:18:39.787Z,9.75
2023-02-23T01:19:42.141Z,9.80
2023-02-23T01:20:45.823Z,10.02
2023-02-23T01:21:48.147Z,9.25
2023-02-23T01:22:54.287Z,9.95
2023-02-23T01:23:57.486Z,9.52
2023-02-23T01:24:59.820Z,9.20
2023-02-23T01:26:02.211Z,9.02
2023-02-23T01:27:06.493Z,9.82
2023-02-23T01:28:13.096Z,9.75
2023-02-23T01:29:18.153Z,9.70
2023-02-23T01:30:21.372Z,9.63
2023-02-23T01:31:25.148Z,9.73
2023-02-23T01:32:27.661Z,10.15
2023-02-23T01:33:31.168Z,9.43
2023-02-23T01:34:33.984Z,9.85
2023-02-23T01:35:36.674Z,16.65
2023-02-23T01:36:40.955Z,173.68
2023-02-23T01:37:43.996Z,112.47
2023-02-23T01:38:46.632Z,86.70
2023-02-23T01:39:49.034Z,68.85
2023-02-23T01:40:51.443Z,54.53
2023-02-23T01:41:55.264Z,43.70
2023-02-23T01:43:07.239Z,36.65
2023-02-23T01:44:13.257Z,31.65
2023-02-23T01:45:24.212Z,26.73
2023-02-23T01:46:26.914Z,25.02
2023-02-23T01:47:30.012Z,23.60
2023-02-23T01:48:39.010Z,20.75
2023-02-23T01:49:41.863Z,21.00
2023-02-23T01:50:56.027Z,20.00
2023-02-23T01:52:11.307Z,18.38
2023-02-23T01:53:14.556Z,17.55
2023-02-23T01:54:21.397Z,17.00
2023-02-23T01:55:26.864Z,16.20
2023-02-23T01:56:43.297Z,15.50
2023-02-23T01:57:46.895Z,15.50
2023-02-23T01:58:52.842Z,15.15
2023-02-23T01:59:55.542Z,14.23
2023-02-23T02:01:03.229Z,15.10
2023-02-23T02:02:05.814Z,13.90
2023-02-23T02:03:14.046Z,15.15
2023-02-23T02:04:19.471Z,13.52
2023-02-23T02:05:21.938Z,13.68
2023-02-23T02:06:29.890Z,14.40
2023-02-23T02:07:35.258Z,12.82
2023-02-23T02:08:44.882Z,14.13
2023-02-23T02:10:06.361Z,13.52
2023-02-23T02:11:25.785Z,12.27
2023-02-23T02:12:28.264Z,12.68
2023-02-23T02:13:32.610Z,12.48
2023-02-23T02:14:36.375Z,11.57
2023-02-23T02:15:53.724Z,12.75
2023-02-23T02:17:10.592Z,13.25
2023-02-23T02:19:05.963Z,12.10
2023-02-23T02:20:37.894Z,11.75
2023-02-23T02:22:08.744Z,11.93
2023-02-23T02:23:57.834Z,12.40
2023-02-23T02:25:26.647Z,11.10
2023-02-23T02:26:44.378Z,11.02
2023-02-23T02:28:13.038Z,10.98
2023-02-23T02:29:50.621Z,11.07
2023-02-23T02:31:15.708Z,10.85
2023-02-23T02:32:35.292Z,10.65
2023-02-23T02:33:48.298Z,10.77
2023-02-23T02:35:21.271Z,10.32
2023-02-23T02:36:42.371Z,10.88
2023-02-23T02:38:01.764Z,11.07
2023-02-23T02:39:34.970Z,9.85
2023-02-23T02:40:53.403Z,10.50
2023-02-23T02:42:25.117Z,11.02
2023-02-23T02:43:47.854Z,9.85
2023-02-23T02:44:58.435Z,10.18
2023-02-23T02:46:17.443Z,10.60
2023-02-23T02:47:29.232Z,10.20
2023-02-23T02:48:59.762Z,10.68
2023-02-23T02:50:09.949Z,9.60
2023-02-23T02:51:26.004Z,10.80
2023-02-23T02:52:43.216Z,10.20
2023-02-23T02:53:58.173Z,9.18
2023-02-23T02:55:16.042Z,9.70
2023-02-23T02:56:22.150Z,9.13
2023-02-23T02:57:27.507Z,9.25
2023-02-23T02:58:30.030Z,9.50
2023-02-23T03:00:00.356Z,9.85
2023-02-23T03:01:31.640Z,10.35
2023-02-23T03:02:55.536Z,9.43
2023-02-23T03:04:20.970Z,8.63
2023-02-23T03:05:56.179Z,8.73
2023-02-23T03:07:29.073Z,8.68
2023-02-23T03:08:59.240Z,8.90
2023-02-23T03:10:42.138Z,9.13
2023-02-23T03:12:22.829Z,8.98
2023-02-23T03:13:49.869Z,8.73
2023-02-23T03:15:10.898Z,9.40
2023-02-23T03:16:56.241Z,9.52
2023-02-23T03:18:49.576Z,8.50
2023-02-23T03:20:22.338Z,9.73
2023-02-23T03:21:49.294Z,9.10
2023-02-23T03:23:23.734Z,9.27
2023-02-23T03:25:18.403Z,9.40
2023-02-23T03:27:05.766Z,9.48
2023-02-23T03:28:36.681Z,9.38
2023-02-23T03:30:15.647Z,9.45
2023-02-23T03:31:46.230Z,8.45
2023-02-23T03:33:22.292Z,9.00
2023-02-23T03:34:49.570Z,8.48
2023-02-23T03:36:32.513Z,7.55
2023-02-23T03:38:03.247Z,9.00
2023-02-23T03:39:46.833Z,8.70
2023-02-23T03:41:10.481Z,8.50
2023-02-23T03:42:38.617Z,8.35
2023-02-23T03:44:08.954Z,8.40
2023-02-23T03:45:35.298Z,9.00
2023-02-23T03:46:58.805Z,8.38
2023-02-23T03:48:23.503Z,9.13
2023-02-23T03:49:50.612Z,8.25
2023-02-23T03:51:15.011Z,8.57
2023-02-23T03:52:41.517Z,8.93
2023-02-23T03:54:26.408Z,9.20
2023-02-23T03:55:52.510Z,8.90
2023-02-23T03:57:16.646Z,8.77
2023-02-23T03:58:46.298Z,8.48
2023-02-23T04:00:15.874Z,8.85
2023-02-23T04:01:39.171Z,8.80
2023-02-23T04:03:03.000Z,8.90
2023-02-23T04:04:26.568Z,8.45
2023-02-23T04:05:49.085Z,8.95
2023-02-23T04:07:11.772Z,8.00
2023-02-23T04:08:37.993Z,7.85
2023-02-23T04:09:59.185Z,8.50
2023-02-23T04:11:40.031Z,8.77
2023-02-23T04:13:15.496Z,7.90
2023-02-23T04:14:30.648Z,8.10
2023-02-23T04:15:59.387Z,8.52
2023-02-23T04:17:04.168Z,9.02
2023-02-23T04:18:11.316Z,8.93
2023-02-23T04:19:14.352Z,8.60
2023-02-23T04:20:16.960Z,8.18
2023-02-23T04:21:19.664Z,8.63
2023-02-23T04:22:23.643Z,8.15
2023-02-23T04:23:27.053Z,8.85
2023-02-23T04:24:29.512Z,8.32
2023-02-23T04:25:31.942Z,8.63
2023-02-23T04:26:34.378Z,9.18
2023-02-23T04:27:36.917Z,8.50
2023-02-23T04:28:39.307Z,8.93
2023-02-23T04:29:42.318Z,8.13
2023-02-23T04:30:45.006Z,8.20
2023-02-23T04:31:48.670Z,8.00
2023-02-23T04:32:52.246Z,8.48
2023-02-23T04:33:54.591Z,8.07
2023-02-23T04:34:56.918Z,9.02
2023-02-23T04:35:59.419Z,8.60
2023-02-23T04:37:01.761Z,8.07
2023-02-23T04:38:04.347Z,7.82
2023-02-23T04:39:06.752Z,8.13
2023-02-23T04:40:10.158Z,8.48
2023-02-23T04:41:12.859Z,7.88
2023-02-23T04:42:16.201Z,8.60
2023-02-23T04:43:18.703Z,9.23
2023-02-23T04:44:21.096Z,8.02
2023-02-23T04:45:24.687Z,8.20
2023-02-23T04:46:27.273Z,8.73
2023-02-23T04:47:30.039Z,7.93
2023-02-23T04:48:32.475Z,8.05
2023-02-23T04:49:34.975Z,7.82
2023-02-23T04:50:39.813Z,8.27
2023-02-23T04:51:42.489Z,7.93
2023-02-23T04:52:44.986Z,8.18
2023-02-23T04:53:47.318Z,7.47
2023-02-23T04:54:49.647Z,7.65
2023-02-23T04:55:52.070Z,7.55
2023-02-23T04:56:54.772Z,8.70
2023-02-23T04:58:00.733Z,7.55
2023-02-23T04:59:03.188Z,7.82
2023-02-23T05:00:06.307Z,8.65
2023-02-23T05:01:09.646Z,7.63
2023-02-23T05:02:12.135Z,8.20
2023-02-23T05:03:14.590Z,7.93
2023-02-23T05:04:18.177Z,7.47
2023-02-23T05:05:21.428Z,7.70
2023-02-23T05:06:25.375Z,8.10
2023-02-23T05:07:27.846Z,7.43
2023-02-23T05:08:30.220Z,7.90
2023-02-23T05:09:33.363Z,7.88
2023-02-23T05:10:35.884Z,7.78
2023-02-23T05:11:38.260Z,8.02
2023-02-23T05:12:40.680Z,8.23
2023-02-23T05:13:43.811Z,7.43
2023-02-23T05:14:46.428Z,8.30
2023-02-23T05:15:48.907Z,7.55
2023-02-23T05:16:51.287Z,7.93
2023-02-23T05:17:55.618Z,8.48
2023-02-23T05:18:58.243Z,8.20
2023-02-23T05:20:00.596Z,7.93
2023-02-23T05:21:07.875Z,7.63
2023-02-23T05:22:12.620Z,8.43
2023-02-23T05:23:14.932Z,6.80
2023-02-23T05:24:18.102Z,8.13
2023-02-23T05:25:20.477Z,7.70
2023-02-23T05:26:22.991Z,8.20
2023-02-23T05:27:26.708Z,7.45
2023-02-23T05:28:29.028Z,7.68
2023-02-23T05:29:31.350Z,7.53
2023-02-23T05:30:34.243Z,8.48
2023-02-23T05:31:36.756Z,7.57
2023-02-23T05:32:39.323Z,7.63
2023-02-23T05:33:45.804Z,7.78
2023-02-23T05:34:48.163Z,7.78
2023-02-23T05:35:50.563Z,7.63
2023-02-23T05:36:54.191Z,7.65
2023-02-23T05:37:56.527Z,7.15
2023-02-23T05:38:58.850Z,7.53
2023-02-23T05:40:01.218Z,7.07
2023-02-23T05:41:11.786Z,8.25
2023-02-23T05:42:14.176Z,6.55
2023-02-23T05:43:16.704Z,7.97
2023-02-23T05:44:19.282Z,7.95
2023-02-23T05:45:21.922Z,7.78
2023-02-23T05:46:26.353Z,7.82
2023-02-23T05:47:28.780Z,8.93
2023-02-23T05:48:31.131Z,8.38
2023-02-23T05:49:33.514Z,9.05
2023-02-23T05:50:36.079Z,9.15
2023-02-23T05:51:39.564Z,8.57
2023-02-23T05:52:42.003Z,8.98
2023-02-23T05:53:46.689Z,8.57
2023-02-23T05:54:49.237Z,8.55
2023-02-23T05:55:52.317Z,8.35
2023-02-23T05:56:54.729Z,7.85
2023-02-23T05:57:57.174Z,7.32
2023-02-23T05:58:59.767Z,7.47
2023-02-23T06:00:02.334Z,7.25
2023-02-23T06:01:06.897Z,7.00
2023-02-23T06:02:09.255Z,6.85
2023-02-23T06:03:11.698Z,7.30
2023-02-23T06:04:14.202Z,7.18
2023-02-23T06:05:16.837Z,7.28
2023-02-23T06:06:20.246Z,6.50
2023-02-23T06:07:22.598Z,7.22
2023-02-23T06:08:26.430Z,7.00
2023-02-23T06:09:28.870Z,7.32
2023-02-23T06:10:31.218Z,6.90
2023-02-23T06:11:33.580Z,7.38
2023-02-23T06:12:37.089Z,7.38
2023-02-23T06:13:40.272Z,7.18
2023-02-23T06:14:42.708Z,6.78
2023-02-23T06:15:45.290Z,6.50
2023-02-23T06:16:48.748Z,157.38
2023-02-23T06:17:51.166Z,155.95
2023-02-23T06:18:53.678Z,132.60
2023-02-23T06:19:56.388Z,76.03
2023-02-23T06:21:01.015Z,56.50
2023-02-23T06:22:03.758Z,35.22
2023-02-23T06:23:07.396Z,26.80
2023-02-23T06:24:10.288Z,26.13
2023-02-23T06:25:13.338Z,23.70
2023-02-23T06:26:15.893Z,24.08
2023-02-23T06:27:18.326Z,24.23
2023-02-23T06:28:20.648Z,23.73
2023-02-23T06:29:22.971Z,25.30
2023-02-23T06:30:25.339Z,26.17
2023-02-23T06:31:28.108Z,26.45
2023-02-23T06:32:30.595Z,26.73
2023-02-23T06:33:34.073Z,26.00
2023-02-23T06:34:36.508Z,27.90
2023-02-23T06:35:39.365Z,26.52
2023-02-23T06:36:41.705Z,26.08
2023-02-23T06:37:44.022Z,24.55
2023-02-23T06:38:47.186Z,25.02
2023-02-23T06:39:50.378Z,24.35
2023-02-23T06:40:52.737Z,24.90
2023-02-23T06:41:55.123Z,24.42
2023-02-23T06:42:57.658Z,24.92
2023-02-23T06:43:59.970Z,25.65
2023-02-23T06:45:04.150Z,25.08
2023-02-23T06:46:06.787Z,25.60
2023-02-23T06:47:09.637Z,24.88
2023-02-23T06:48:12.021Z,25.00
2023-02-23T06:49:16.587Z,24.77
2023-02-23T06:50:19.132Z,25.40
2023-02-23T06:51:21.730Z,25.38
2023-02-23T06:52:26.204Z,23.55
2023-02-23T06:53:30.376Z,19.83
2023-02-23T06:54:34.139Z,24.27
2023-02-23T06:55:36.494Z,24.05
2023-02-23T06:56:38.860Z,23.52
2023-02-23T06:57:41.616Z,23.95
2023-02-23T06:58:44.059Z,24.80
2023-02-23T06:59:46.412Z,22.65
2023-02-23T07:00:48.799Z,22.75
2023-02-23T07:01:51.267Z,23.20
2023-02-23T07:02:53.721Z,22.58
2023-02-23T07:03:56.184Z,23.05
2023-02-23T07:04:58.873Z,23.08
2023-02-23T07:06:01.239Z,23.17
2023-02-23T07:07:04.254Z,22.20
2023-02-23T07:08:07.045Z,23.02
2023-02-23T07:09:09.412Z,22.70
2023-02-23T07:10:12.077Z,21.67
2023-02-23T07:11:16.046Z,22.05
2023-02-23T07:12:18.598Z,22.50
2023-02-23T07:13:21.905Z,23.30
2023-02-23T07:14:26.979Z,21.55
2023-02-23T07:15:29.750Z,22.77
2023-02-23T07:16:32.245Z,20.95
2023-02-23T07:17:34.734Z,21.90
2023-02-23T07:18:37.130Z,19.75
2023-02-23T07:19:39.996Z,16.77
2023-02-23T07:20:42.499Z,17.23
2023-02-23T07:21:44.825Z,16.17
2023-02-23T07:22:47.857Z,16.00
2023-02-23T07:23:50.430Z,16.23
2023-02-23T07:24:52.813Z,16.05
2023-02-23T07:25:56.489Z,15.73
2023-02-23T07:26:58.967Z,14.00
2023-02-23T07:28:01.759Z,15.93
2023-02-23T07:29:04.289Z,15.73
2023-02-23T07:30:07.564Z,17.20
2023-02-23T07:31:09.991Z,16.63
2023-02-23T07:32:12.424Z,16.35
2023-02-23T07:33:14.845Z,17.98
2023-02-23T07:34:17.260Z,17.67
2023-02-23T07:35:20.295Z,18.42
2023-02-23T07:36:23.916Z,17.42
2023-02-23T07:37:26.365Z,17.98
2023-02-23T07:38:28.757Z,18.23
2023-02-23T07:39:31.423Z,18.45
2023-02-23T07:40:34.046Z,18.35
2023-02-23T07:41:36.355Z,17.48
2023-02-23T07:42:38.704Z,18.27
2023-02-23T07:43:41.294Z,16.95
2023-02-23T07:44:45.302Z,18.42
2023-02-23T07:45:47.725Z,17.90
2023-02-23T07:46:50.810Z,18.52
2023-02-23T07:47:53.194Z,16.02
2023-02-23T07:48:55.597Z,16.75
2023-02-23T07:50:00.606Z,17.98
2023-02-23T07:51:10.121Z,16.38
2023-02-23T07:52:12.629Z,18.30
2023-02-23T07:53:15.528Z,17.98
2023-02-23T07:54:17.931Z,17.77
2023-02-23T07:55:20.990Z,16.05
2023-02-23T07:56:23.419Z,17.77
2023-02-23T07:57:25.919Z,17.60
2023-02-23T07:58:28.376Z,17.70
2023-02-23T07:59:32.037Z,17.38
2023-02-23T08:00:36.472Z,15.20
2023-02-23T08:01:38.919Z,15.60
2023-02-23T08:02:41.495Z,15.23
2023-02-23T08:03:49.549Z,16.15
2023-02-23T08:04:54.140Z,16.05
2023-02-23T08:05:57.790Z,15.50
2023-02-23T08:07:00.342Z,17.15
2023-02-23T08:08:02.719Z,16.73
2023-02-23T08:09:06.017Z,16.13
2023-02-23T08:10:09.012Z,17.25
2023-02-23T08:11:11.879Z,16.50
2023-02-23T08:12:15.754Z,17.27
2023-02-23T08:13:18.142Z,17.98
2023-02-23T08:14:23.527Z,16.63
2023-02-23T08:15:25.919Z,16.25
2023-02-23T08:16:29.735Z,16.35
2023-02-23T08:17:32.136Z,15.90
2023-02-23T08:18:35.017Z,17.33
2023-02-23T08:19:37.694Z,15.82
2023-02-23T08:20:40.050Z,16.02
2023-02-23T08:21:43.397Z,16.38
2023-02-23T08:22:49.774Z,14.98
2023-02-23T08:23:52.413Z,15.68
2023-02-23T08:24:54.787Z,15.43
2023-02-23T08:25:57.929Z,15.55
2023-02-23T08:27:02.032Z,15.80
2023-02-23T08:28:06.709Z,15.80
2023-02-23T08:29:09.353Z,16.65
2023-02-23T08:30:14.196Z,16.08
2023-02-23T08:31:19.489Z,15.23
2023-02-23T08:32:22.573Z,14.48
2023-02-23T08:33:25.306Z,15.00
2023-02-23T08:34:27.717Z,13.77
2023-02-23T08:35:31.087Z,13.57
2023-02-23T08:36:33.464Z,12.68
2023-02-23T08:37:36.083Z,12.90
2023-02-23T08:38:38.490Z,13.05
2023-02-23T08:39:43.344Z,12.80
2023-02-23T08:40:46.259Z,13.60
2023-02-23T08:41:48.699Z,14.43
2023-02-23T08:42:54.254Z,14.68
2023-02-23T08:43:58.863Z,15.57
2023-02-23T08:45:01.568Z,15.15
2023-02-23T08:46:04.035Z,15.02
2023-02-23T08:47:06.388Z,14.82
2023-02-23T08:48:08.994Z,15.32
2023-02-23T08:49:11.804Z,15.10
2023-02-23T08:50:14.648Z,14.75
2023-02-23T08:51:17.247Z,14.30
2023-02-23T08:52:20.344Z,15.27
2023-02-23T08:53:23.073Z,14.15
2023-02-23T08:54:25.527Z,14.63
2023-02-23T08:55:27.923Z,15.07
2023-02-23T08:56:31.638Z,14.70
2023-02-23T08:57:34.902Z,14.95
2023-02-23T08:58:37.639Z,14.15
2023-02-23T08:59:41.201Z,14.88
2023-02-23T09:00:44.747Z,14.63
2023-02-23T09:01:47.248Z,14.35
2023-02-23T09:02:49.776Z,13.68
2023-02-23T09:03:52.240Z,14.07
2023-02-23T09:04:55.256Z,13.93
2023-02-23T09:06:09.152Z,14.23
2023-02-23T09:07:17.394Z,14.18
2023-02-23T09:08:20.449Z,14.93
2023-02-23T09:09:22.743Z,13.65
2023-02-23T09:10:27.732Z,13.63
2023-02-23T09:11:30.066Z,27.13
2023-02-23T09:12:32.467Z,52.30
2023-02-23T09:13:35.220Z,50.03
2023-02-23T09:14:37.704Z,51.92
2023-02-23T09:15:41.237Z,46.83
2023-02-23T09:16:45.004Z,40.13
2023-02-23T09:17:48.053Z,33.88
2023-02-23T09:18:50.488Z,26.40
2023-02-23T09:19:54.035Z,25.77
2023-02-23T09:20:56.778Z,26.15
2023-02-23T09:21:59.097Z,24.85
2023-02-23T09:23:01.745Z,25.35
2023-02-23T09:24:04.356Z,23.35
2023-02-23T09:25:08.467Z,24.25
2023-02-23T09:26:11.004Z,22.08
2023-02-23T09:27:14.186Z,23.10
2023-02-23T09:28:18.776Z,22.50
2023-02-23T09:29:24.864Z,23.17
2023-02-23T09:30:28.149Z,23.58
2023-02-23T09:31:31.606Z,24.48
2023-02-23T09:32:34.403Z,21.13
2023-02-23T09:33:37.309Z,21.25
2023-02-23T09:34:39.648Z,21.50
2023-02-23T09:35:42.065Z,21.02
2023-02-23T09:36:44.716Z,20.45
2023-02-23T09:37:49.749Z,20.15
2023-02-23T09:38:57.241Z,21.75
2023-02-23T09:39:59.825Z,20.27
2023-02-23T09:41:02.313Z,19.08
2023-02-23T09:42:45.504Z,20.25
2023-02-23T09:43:55.950Z,20.55
2023-02-23T09:45:07.892Z,19.25
2023-02-23T09:46:38.389Z,18.27
2023-02-23T09:47:45.875Z,18.98
2023-02-23T09:48:48.951Z,18.08
2023-02-23T09:49:53.381Z,17.88
2023-02-23T09:50:57.861Z,18.80
2023-02-23T09:52:03.960Z,17.75
2023-02-23T09:53:35.826Z,19.42
2023-02-23T09:54:38.223Z,18.95
2023-02-23T09:55:42.829Z,18.52
2023-02-23T09:56:49.654Z,16.52
2023-02-23T09:57:52.392Z,16.83
2023-02-23T09:58:54.870Z,19.70
2023-02-23T09:59:57.362Z,18.00
2023-02-23T10:01:10.175Z,15.57
2023-02-23T10:02:30.862Z,18.48
2023-02-23T10:03:48.435Z,17.92
2023-02-23T10:04:58.365Z,17.98
2023-02-23T10:06:05.767Z,16.85
2023-02-23T10:07:18.852Z,17.65
2023-02-23T10:08:55.703Z,16.92
2023-02-23T10:10:16.006Z,16.90
2023-02-23T10:11:27.002Z,14.50
2023-02-23T10:13:09.444Z,13.73
2023-02-23T10:14:20.638Z,9.48
2023-02-23T10:17:06.333Z,7.18
2023-02-23T10:18:17.213Z,8.00
2023-02-23T10:20:00.828Z,7.97
2023-02-23T10:21:08.372Z,7.55
2023-02-23T10:22:12.329Z,6.45
2023-02-23T10:23:21.727Z,7.03
2023-02-23T10:24:26.723Z,6.43
2023-02-23T10:25:34.046Z,7.00
2023-02-23T10:26:47.257Z,6.72
2023-02-23T10:27:50.364Z,6.82
2023-02-23T10:28:56.737Z,7.28
2023-02-23T10:30:02.723Z,7.13
2023-02-23T10:31:27.592Z,7.57
2023-02-23T10:32:40.018Z,6.32
2023-02-23T10:33:42.596Z,6.05
2023-02-23T10:34:48.340Z,6.60
2023-02-23T10:36:07.402Z,6.20
2023-02-23T10:37:16.890Z,6.85
2023-02-23T10:38:19.907Z,6.45
2023-02-23T10:39:23.208Z,5.97
2023-02-23T10:40:28.811Z,5.47
2023-02-23T10:41:31.619Z,5.60
2023-02-23T10:42:34.435Z,5.65
2023-02-23T10:43:36.973Z,5.25
2023-02-23T10:44:39.720Z,5.60
2023-02-23T10:45:48.601Z,5.82
2023-02-23T10:47:13.632Z,6.45
2023-02-23T10:48:43.500Z,5.82
2023-02-23T10:49:51.612Z,5.25
2023-02-23T10:51:02.713Z,4.80
2023-02-23T10:52:07.529Z,6.00
2023-02-23T10:53:27.909Z,5.43
2023-02-23T10:54:44.778Z,5.38
2023-02-23T10:56:00.177Z,4.45
2023-02-23T10:57:04.518Z,5.25
2023-02-23T10:58:19.396Z,5.18
2023-02-23T10:59:22.601Z,5.15
2023-02-23T11:00:32.700Z,4.82
2023-02-23T11:02:00.779Z,4.63
2023-02-23T11:03:19.059Z,4.55
2023-02-23T11:04:30.591Z,4.68
2023-02-23T11:06:40.120Z,3.70
2023-02-23T11:07:43.254Z,4.50
2023-02-23T11:08:46.023Z,4.38
2023-02-23T11:09:49.639Z,3.95
2023-02-23T11:11:19.420Z,4.75
2023-02-23T11:12:49.943Z,4.60
2023-02-23T11:13:52.879Z,4.40
2023-02-23T11:14:57.442Z,5.00
2023-02-23T11:16:03.099Z,4.25
2023-02-23T11:17:05.553Z,4.85
2023-02-23T11:18:19.783Z,4.82
2023-02-23T11:19:37.191Z,4.90
2023-02-23T11:20:41.754Z,5.22
2023-02-23T11:21:52.478Z,4.18
2023-02-23T11:22:58.965Z,4.82
2023-02-23T11:24:42.991Z,5.40
2023-02-23T11:25:49.432Z,4.93
2023-02-23T11:26:55.021Z,4.45
2023-02-23T11:27:58.777Z,5.03
2023-02-23T11:29:10.900Z,4.57
2023-02-23T11:30:13.700Z,4.35
2023-02-23T11:31:20.421Z,4.72
2023-02-23T11:32:33.384Z,4.95
2023-02-23T11:33:38.933Z,4.70
2023-02-23T11:34:43.235Z,4.53
2023-02-23T11:35:46.629Z,4.03
2023-02-23T11:37:03.098Z,4.35
2023-02-23T11:38:22.376Z,4.25
2023-02-23T11:39:24.817Z,4.00
2023-02-23T11:40:32.530Z,4.38
2023-02-23T11:41:37.151Z,4.20
2023-02-23T11:42:55.434Z,4.03
2023-02-23T11:43:59.450Z,4.93
2023-02-23T11:45:05.510Z,4.28
2023-02-23T11:46:09.215Z,4.20
2023-02-23T11:47:21.616Z,4.80
2023-02-23T11:48:28.705Z,4.28
2023-02-23T11:49:35.854Z,3.92
2023-02-23T11:50:38.440Z,4.00
2023-02-23T11:51:49.099Z,4.03
2023-02-23T11:53:06.485Z,4.32
2023-02-23T11:54:27.390Z,4.50
2023-02-23T11:55:32.217Z,4.40
2023-02-23T11:56:35.791Z,3.97
2023-02-23T11:57:38.134Z,4.63
2023-02-23T11:58:49.848Z,4.28
2023-02-23T11:59:52.901Z,5.22
2023-02-23T12:01:13.584Z,4.00
2023-02-23T12:02:25.423Z,5.30
2023-02-23T12:03:30.873Z,4.22
2023-02-23T12:04:38.967Z,3.90
2023-02-23T12:05:41.388Z,4.50
2023-02-23T12:06:43.809Z,4.65
2023-02-23T12:08:06.797Z,4.32
2023-02-23T12:09:26.978Z,4.40
2023-02-23T12:10:47.994Z,4.18
2023-02-23T12:12:04.912Z,4.22
2023-02-23T12:13:25.228Z,4.28
2023-02-23T12:15:07.551Z,3.83
2023-02-23T12:16:23.390Z,4.20
2023-02-23T12:17:29.453Z,4.07
2023-02-23T12:19:19.938Z,3.85
2023-02-23T12:20:26.937Z,3.50
2023-02-23T12:21:44.140Z,3.72
2023-02-23T12:22:52.466Z,3.75
2023-02-23T12:24:12.608Z,3.30
2023-02-23T12:25:26.880Z,3.90
2023-02-23T12:26:34.010Z,3.25
2023-02-23T12:28:18.086Z,3.80
2023-02-23T12:29:48.410Z,3.33
2023-02-23T12:30:54.740Z,3.50
2023-02-23T12:32:12.676Z,3.58
2023-02-23T12:33:20.696Z,3.50
2023-02-23T12:34:46.438Z,3.58
2023-02-23T12:35:57.277Z,4.03
2023-02-23T12:37:07.488Z,3.65
2023-02-23T12:38:41.251Z,3.78
2023-02-23T12:39:48.099Z,3.45
2023-02-23T12:40:51.690Z,3.67
2023-02-23T12:42:29.898Z,3.83
2023-02-23T12:43:51.389Z,3.67
2023-02-23T12:45:02.828Z,3.70
2023-02-23T12:46:14.561Z,4.15
2023-02-23T12:48:57.474Z,3.97
2023-02-23T12:50:11.174Z,3.65
2023-02-23T12:51:41.124Z,3.85
2023-02-23T12:52:53.645Z,3.88
2023-02-23T12:53:56.026Z,4.47
2023-02-23T12:54:58.445Z,4.75
2023-02-23T12:56:04.298Z,4.47
2023-02-23T12:57:19.424Z,4.20
2023-02-23T12:58:49.346Z,4.10
2023-02-23T12:59:51.700Z,3.97
2023-02-23T13:01:05.965Z,3.63
2023-02-23T13:02:16.366Z,3.90
2023-02-23T13:03:46.054Z,3.60
2023-02-23T13:05:12.952Z,3.85
2023-02-23T13:06:39.816Z,3.95
2023-02-23T13:07:42.312Z,3.30
2023-02-23T13:09:05.987Z,3.42
2023-02-23T13:10:31.962Z,3.13
2023-02-23T13:12:08.376Z,3.10
2023-02-23T13:13:20.737Z,3.13
2023-02-23T13:14:49.524Z,3.30
2023-02-23T13:16:17.037Z,2.95
2023-02-23T13:17:49.529Z,3.15
2023-02-23T13:19:26.067Z,3.75
2023-02-23T13:21:09.684Z,3.20
2023-02-23T13:22:36.489Z,3.63
2023-02-23T13:23:56.203Z,3.45
2023-02-23T13:25:04.932Z,3.42
2023-02-23T13:26:28.611Z,3.40
2023-02-23T13:27:36.630Z,3.40
2023-02-23T13:29:19.799Z,3.45
2023-02-23T13:30:22.610Z,2.58
2023-02-23T13:31:46.333Z,3.33
2023-02-23T13:32:49.337Z,3.83
2023-02-23T13:33:54.419Z,3.17
2023-02-23T13:35:00.672Z,2.85
2023-02-23T13:36:04.389Z,3.13
2023-02-23T13:37:08.244Z,2.67
2023-02-23T13:38:44.258Z,3.30
2023-02-23T13:40:02.585Z,3.10
2023-02-23T13:41:52.521Z,2.72
2023-02-23T13:43:52.197Z,2.83
2023-02-23T13:44:54.852Z,3.33
2023-02-23T13:46:16.439Z,3.05
2023-02-23T13:48:58.860Z,2.88
2023-02-23T13:50:26.021Z,3.20
2023-02-23T13:51:33.341Z,3.03
2023-02-23T13:52:39.873Z,2.70
2023-02-23T13:53:42.318Z,3.22
2023-02-23T13:55:06.409Z,2.80
2023-02-23T13:56:18.363Z,3.40
2023-02-23T13:57:23.375Z,3.13
2023-02-23T13:58:31.006Z,2.92
2023-02-23T13:59:45.486Z,3.10
2023-02-23T14:01:04.193Z,2.53
2023-02-23T14:02:26.874Z,3.17
2023-02-23T14:03:30.600Z,3.15
2023-02-23T14:04:41.970Z,2.83
2023-02-23T14:05:45.020Z,2.95
2023-02-23T14:06:56.750Z,4.22
2023-02-23T14:08:05.229Z,9.82
2023-02-23T14:09:18.206Z,11.32
2023-02-23T14:10:24.263Z,13.93
2023-02-23T14:11:44.209Z,11.60
2023-02-23T14:13:07.846Z,9.65
2023-02-23T14:14:16.912Z,7.85
2023-02-23T14:15:25.331Z,6.93
2023-02-23T14:16:27.862Z,5.88
2023-02-23T14:17:36.474Z,6.90
2023-02-23T14:18:55.537Z,6.10
2023-02-23T14:20:13.393Z,5.80
2023-02-23T14:21:30.398Z,6.03
2023-02-23T14:22:34.703Z,5.18
2023-02-23T14:23:53.774Z,5.28
2023-02-23T14:25:33.979Z,5.32
2023-02-23T14:26:39.246Z,4.68
2023-02-23T14:27:45.915Z,4.93
2023-02-23T14:29:27.522Z,4.88
2023-02-23T14:30:43.542Z,4.75
2023-02-23T14:31:58.222Z,5.18
2023-02-23T14:33:21.194Z,5.18
2023-02-23T14:34:42.134Z,3.63
2023-02-23T14:35:47.816Z,4.05
2023-02-23T14:36:56.368Z,5.90
2023-02-23T14:38:01.985Z,9.52
2023-02-23T14:39:07.899Z,12.60
2023-02-23T14:40:22.426Z,20.20
2023-02-23T14:41:50.079Z,12.13
2023-02-23T14:42:56.804Z,9.50
2023-02-23T14:44:28.945Z,9.07
2023-02-23T14:45:38.329Z,7.03
2023-02-23T14:47:02.730Z,7.97
2023-02-23T14:48:19.437Z,7.10
2023-02-23T14:49:25.324Z,6.40
2023-02-23T14:50:34.097Z,6.70
2023-02-23T14:51:41.964Z,6.75
2023-02-23T14:52:44.356Z,7.22
2023-02-23T14:53:47.017Z,6.75
2023-02-23T14:54:50.699Z,6.32
2023-02-23T14:55:53.170Z,6.32
2023-02-23T14:56:59.166Z,6.07
2023-02-23T14:58:03.203Z,5.60
2023-02-23T14:59:07.465Z,5.70
2023-02-23T15:00:23.109Z,5.68
2023-02-23T15:01:32.989Z,6.47
2023-02-23T15:02:40.783Z,5.50
2023-02-23T15:04:13.200Z,6.15
2023-02-23T15:05:22.657Z,5.78
2023-02-23T15:06:27.460Z,6.35
2023-02-23T15:07:40.923Z,5.47
2023-02-23T15:08:45.915Z,6.50
2023-02-23T15:09:48.889Z,5.93
2023-02-23T15:11:13.334Z,5.85
2023-02-23T15:12:20.917Z,5.70
2023-02-23T15:13:33.193Z,5.97
2023-02-23T15:14:39.238Z,5.90
2023-02-23T15:15:45.692Z,5.50
2023-02-23T15:16:50.039Z,5.35
2023-02-23T15:17:56.010Z,5.45
2023-02-23T15:19:00.642Z,5.65